Time;durP1;ratioP1;P1;durP2;ratioP2;P2;SDS_P1;SDS_P2;PMS_P1;PMS_P2;Temp;Humidity;BMP_temperature;BMP_pressure;BME280_temperature;BME280_humidity;BME280_pressure;Samples;Min_cycle;Max_cycle;Signal;HPM_P1;HPM_P2
2023/07/24 00:01:10;;;;;;;1.70;1.60;;;22.70;60.10;23.40;99812.00;;;;6269564;22;20195;-58
2023/07/24 00:03:35;;;;;;;1.70;1.60;;;22.70;60.30;23.40;99803.00;;;;6268699;22;20145;-58
2023/07/24 00:06:01;;;;;;;1.87;1.77;;;22.70;60.20;23.40;99797.00;;;;6268504;22;20490;-57
2023/07/24 00:08:27;;;;;;;2.07;1.93;;;22.70;60.20;23.40;99798.00;;;;6268629;22;20176;-59
2023/07/24 00:10:53;;;;;;;1.80;1.70;;;22.70;60.30;23.40;99803.00;;;;6268880;22;20176;-59
2023/07/24 00:13:19;;;;;;;2.30;1.77;;;22.70;60.20;23.40;99795.00;;;;6268525;22;20176;-60
2023/07/24 00:16:03;;;;;;;1.77;1.67;;;22.70;60.20;23.40;99793.00;;;;6268489;22;20184;-59
2023/07/24 00:18:30;;;;;;;1.90;1.80;;;22.70;60.30;23.40;99800.00;;;;6269150;22;20216;-60
2023/07/24 00:20:56;;;;;;;1.83;1.73;;;22.70;60.40;23.20;99791.00;;;;6270592;22;20141;-60
2023/07/24 00:23:21;;;;;;;2.03;1.90;;;22.70;60.70;23.40;99792.00;;;;6269673;22;20145;-58
2023/07/24 00:25:47;;;;;;;2.00;1.90;;;22.70;60.40;23.40;99747.00;;;;6269781;22;20458;-59
2023/07/24 00:28:13;;;;;;;1.90;1.80;;;22.70;60.60;23.40;99785.00;;;;6269870;22;20260;-59
2023/07/24 00:30:38;;;;;;;2.00;1.90;;;22.60;60.60;23.40;99789.00;;;;6269977;22;20148;-59
2023/07/24 00:33:04;;;;;;;1.90;1.80;;;22.70;61.10;23.40;99790.00;;;;6268216;22;20153;-58
2023/07/24 00:35:30;;;;;;;1.83;1.73;;;22.70;60.90;23.40;99782.00;;;;6268948;22;20457;-60
2023/07/24 00:37:55;;;;;;;2.00;1.90;;;22.60;60.70;23.40;99780.00;;;;6269914;22;20648;-60
2023/07/24 00:40:21;;;;;;;1.97;1.87;;;22.60;60.90;23.40;99783.00;;;;6269872;22;20145;-59
2023/07/24 00:42:48;;;;;;;2.00;1.90;;;22.60;61.00;23.40;99790.00;;;;6270194;22;20493;-59
2023/07/24 00:45:14;;;;;;;1.90;1.80;;;22.60;61.10;23.40;99774.00;;;;6269793;22;20152;-59
2023/07/24 00:47:42;;;;;;;2.00;1.90;;;22.60;60.90;23.40;99786.00;;;;6242735;22;20205;-59
2023/07/24 00:50:08;;;;;;;1.90;1.80;;;22.60;60.80;23.40;99779.00;;;;6268274;22;20145;-59
2023/07/24 00:52:34;;;;;;;1.90;1.80;;;22.60;60.80;23.30;99774.00;;;;6268613;22;20149;-59
2023/07/24 00:54:59;;;;;;;1.90;1.80;;;22.60;60.80;23.20;99704.00;;;;6269604;22;20173;-60
2023/07/24 00:57:25;;;;;;;2.23;2.03;;;22.60;60.80;23.40;99771.00;;;;6269758;22;20227;-59
2023/07/24 00:59:51;;;;;;;1.90;1.80;;;22.60;60.80;23.40;99761.00;;;;6268130;22;20189;-59
2023/07/24 01:02:17;;;;;;;2.17;2.00;;;22.60;60.90;23.30;99750.00;;;;6268035;22;20148;-59
2023/07/24 01:04:42;;;;;;;2.00;1.90;;;22.60;60.80;23.40;99760.00;;;;6269774;22;20203;-60
2023/07/24 01:07:08;;;;;;;1.80;1.70;;;22.60;60.90;23.40;99747.00;;;;6267735;22;20153;-60
2023/07/24 01:09:34;;;;;;;2.37;2.10;;;22.70;61.70;23.30;99748.00;;;;6272111;22;20197;-59
2023/07/24 01:12:10;;;;;;;2.13;1.97;;;22.60;60.70;23.30;99746.00;;;;6270651;22;20438;-60
2023/07/24 01:14:47;;;;;;;2.00;1.90;;;22.50;60.50;23.30;99733.00;;;;6243503;22;20538;-60
2023/07/24 01:17:18;;;;;;;2.20;2.00;;;22.60;60.80;23.30;99730.00;;;;6244164;22;20551;-59
2023/07/24 01:19:49;;;;;;;2.07;1.97;;;22.60;60.80;23.30;99726.00;;;;6243098;22;20486;-60
2023/07/24 01:22:30;;;;;;;2.33;2.13;;;22.60;60.80;23.30;99732.00;;;;6268072;22;20570;-59
2023/07/24 01:25:23;;;;;;;2.00;1.90;;;22.60;60.90;23.30;99714.00;;;;6274173;22;20693;-60
2023/07/24 01:27:49;;;;;;;2.10;2.00;;;22.60;60.80;23.30;99719.00;;;;6269579;22;20165;-59
2023/07/24 01:30:17;;;;;;;1.87;1.77;;;22.60;60.80;23.30;99711.00;;;;6269665;22;20198;-59
2023/07/24 01:32:43;;;;;;;1.93;1.83;;;22.50;60.80;23.30;99714.00;;;;6269534;22;20297;-59
2023/07/24 01:35:09;;;;;;;1.90;1.80;;;22.60;60.90;23.30;99703.00;;;;6267668;22;20236;-59
2023/07/24 01:37:35;;;;;;;2.20;2.10;;;22.60;60.80;23.30;99706.00;;;;6269222;22;20244;-59
2023/07/24 01:40:01;;;;;;;2.30;2.10;;;22.50;60.80;23.10;99715.00;;;;6242412;22;20151;-58
2023/07/24 01:42:26;;;;;;;2.30;2.10;;;22.50;60.90;23.10;99705.00;;;;6267812;22;20216;-60
2023/07/24 01:44:53;;;;;;;2.13;1.97;;;22.50;60.90;23.30;99705.00;;;;6267693;22;20195;-60
2023/07/24 01:47:19;;;;;;;2.30;2.10;;;22.50;60.90;23.30;99694.00;;;;6269071;22;20183;-59
2023/07/24 01:49:45;;;;;;;2.13;2.03;;;22.50;61.10;23.30;99693.00;;;;6267788;22;20149;-60
2023/07/24 01:52:10;;;;;;;2.30;2.10;;;22.60;61.20;23.30;99687.00;;;;6269417;22;20145;-60
2023/07/24 01:54:36;;;;;;;2.33;2.13;;;22.50;61.20;23.30;99689.00;;;;6269213;22;20172;-60
2023/07/24 01:57:02;;;;;;;2.30;2.10;;;22.50;61.20;23.30;99683.00;;;;6269227;22;20612;-60
2023/07/24 01:59:27;;;;;;;2.30;2.10;;;22.50;61.20;23.30;99684.00;;;;6269216;22;20141;-60
2023/07/24 02:01:53;;;;;;;3.33;2.30;;;22.50;61.10;23.30;99677.00;;;;6269056;22;20145;-60
2023/07/24 02:04:22;;;;;;;2.70;2.00;;;22.50;61.20;23.30;99659.00;;;;6269320;22;20149;-60
2023/07/24 02:06:48;;;;;;;2.07;1.97;;;22.50;61.20;23.30;99658.00;;;;6267587;22;20208;-60
2023/07/24 02:09:14;;;;;;;3.03;2.30;;;22.50;61.20;23.30;99648.00;;;;6269149;22;20736;-60
2023/07/24 02:11:40;;;;;;;2.43;2.20;;;22.50;61.20;23.30;99663.00;;;;6269065;22;20608;-60
2023/07/24 02:14:06;;;;;;;2.17;2.03;;;22.50;61.10;23.30;99670.00;;;;6269024;22;20145;-59
2023/07/24 02:16:32;;;;;;;2.00;1.90;;;22.50;61.10;23.30;99671.00;;;;6268654;22;20175;-59
2023/07/24 02:18:57;;;;;;;2.30;2.10;;;22.50;61.10;23.30;99669.00;;;;6268943;22;20633;-60
2023/07/24 02:21:23;;;;;;;2.10;2.00;;;22.50;61.20;23.30;99669.00;;;;6269233;22;20145;-60
2023/07/24 02:23:49;;;;;;;2.20;2.10;;;22.50;61.10;23.30;99667.00;;;;6268896;22;20142;-60
2023/07/24 02:26:14;;;;;;;2.43;2.23;;;22.50;61.20;23.30;99659.00;;;;6268621;22;20149;-60
2023/07/24 02:28:40;;;;;;;2.30;2.10;;;22.50;61.10;23.30;99653.00;;;;6268719;22;20168;-60
2023/07/24 02:31:06;;;;;;;2.37;2.17;;;22.50;61.10;23.30;99649.00;;;;6269192;22;20233;-60
2023/07/24 02:33:32;;;;;;;2.20;2.10;;;22.50;61.10;23.30;99640.00;;;;6269057;22;20149;-60
2023/07/24 02:35:57;;;;;;;2.20;2.10;;;22.50;61.10;23.30;99647.00;;;;6268657;22;20169;-60
2023/07/24 02:38:23;;;;;;;2.47;2.27;;;22.50;61.10;23.30;99641.00;;;;6269097;22;20165;-61
2023/07/24 02:40:49;;;;;;;2.10;2.00;;;22.50;61.10;23.30;99639.00;;;;6269146;22;20141;-61
2023/07/24 02:43:15;;;;;;;2.37;2.20;;;22.50;61.10;23.30;99631.00;;;;6268808;22;20146;-60
2023/07/24 02:45:40;;;;;;;2.40;2.20;;;22.50;61.20;23.30;99634.00;;;;6268843;22;20149;-60
2023/07/24 02:48:06;;;;;;;2.97;2.13;;;22.50;61.10;23.30;99640.00;;;;6269023;22;20435;-59
2023/07/24 02:50:33;;;;;;;2.37;2.10;;;22.50;61.20;23.30;99644.00;;;;6269314;22;20184;-59
2023/07/24 02:52:58;;;;;;;2.23;2.13;;;22.50;61.20;23.30;99650.00;;;;6269242;22;20222;-60
2023/07/24 02:55:24;;;;;;;2.03;1.93;;;22.50;61.20;23.30;99652.00;;;;6268364;22;20169;-60
2023/07/24 02:57:50;;;;;;;2.13;2.03;;;22.50;61.10;23.30;99644.00;;;;6267365;22;20164;-60
2023/07/24 03:00:16;;;;;;;2.27;2.10;;;22.50;61.10;23.30;99646.00;;;;6270945;22;20233;-60
2023/07/24 03:02:42;;;;;;;2.10;2.00;;;22.50;61.10;23.30;99636.00;;;;6272591;22;20590;-60
2023/07/24 03:05:08;;;;;;;2.50;2.30;;;22.40;61.00;23.30;99615.00;;;;6272432;22;20152;-60
2023/07/24 03:07:33;;;;;;;2.20;2.10;;;22.40;61.00;23.30;99624.00;;;;6272262;22;20168;-60
2023/07/24 03:09:59;;;;;;;2.20;2.00;;;22.40;61.00;23.30;99615.00;;;;6272667;22;20149;-60
2023/07/24 03:12:25;;;;;;;3.70;2.20;;;22.50;61.10;23.30;99633.00;;;;6274027;22;20149;-60
2023/07/24 03:14:50;;;;;;;2.30;2.20;;;22.40;61.10;23.30;99634.00;;;;6279556;22;20173;-61
2023/07/24 03:17:16;;;;;;;2.47;2.27;;;22.40;61.00;23.20;99614.00;;;;6272234;22;20156;-60
2023/07/24 03:19:42;;;;;;;2.20;2.10;;;22.40;61.00;23.20;99613.00;;;;6272512;22;20194;-60
2023/07/24 03:22:08;;;;;;;2.30;2.20;;;22.40;61.00;23.20;99602.00;;;;6272248;22;20141;-60
2023/07/24 03:24:34;;;;;;;2.40;2.20;;;22.40;60.90;23.20;99594.00;;;;6270649;22;20617;-61
2023/07/24 03:27:00;;;;;;;2.13;2.03;;;22.40;61.00;23.20;99605.00;;;;6270875;22;20156;-57
2023/07/24 03:29:26;;;;;;;2.20;2.00;;;22.50;61.10;23.20;99591.00;;;;6277533;22;20211;-60
2023/07/24 03:31:52;;;;;;;3.40;2.43;;;22.40;61.10;23.20;99597.00;;;;6270203;22;20168;-60
2023/07/24 03:34:18;;;;;;;2.40;2.20;;;22.40;61.10;23.20;99598.00;;;;6271973;22;20157;-59
2023/07/24 03:36:44;;;;;;;3.87;2.43;;;22.40;61.10;23.20;99607.00;;;;6271910;22;20157;-60
2023/07/24 03:39:10;;;;;;;2.40;2.20;;;22.40;61.10;23.20;99595.00;;;;6271981;22;20617;-59
2023/07/24 03:41:36;;;;;;;4.20;2.47;;;22.40;61.10;23.20;99595.00;;;;6245177;22;20199;-59
2023/07/24 03:44:01;;;;;;;2.40;2.20;;;22.40;61.00;23.20;99594.00;;;;6272271;22;20149;-59
2023/07/24 03:46:27;;;;;;;3.33;2.40;;;22.40;61.10;23.20;99590.00;;;;6271818;22;20149;-60
2023/07/24 03:48:53;;;;;;;2.40;2.20;;;22.40;61.10;23.20;99590.00;;;;6272324;22;20506;-59
2023/07/24 03:51:18;;;;;;;2.70;2.43;;;22.40;61.10;23.20;99598.00;;;;6272392;22;20152;-60
2023/07/24 03:53:44;;;;;;;3.07;2.33;;;22.40;61.10;23.20;99595.00;;;;6268726;22;20149;-59
2023/07/24 03:56:10;;;;;;;2.50;2.30;;;22.30;60.90;23.10;99591.00;;;;6269281;22;20192;-59
2023/07/24 03:58:37;;;;;;;2.77;2.40;;;22.40;61.00;23.10;99592.00;;;;6271552;22;20648;-59
2023/07/24 04:01:02;;;;;;;2.40;2.20;;;22.30;61.00;23.10;99590.00;;;;6268141;22;20536;-59
2023/07/24 04:03:28;;;;;;;2.40;2.20;;;22.30;60.90;23.10;99584.00;;;;6271339;22;20141;-59
2023/07/24 04:05:54;;;;;;;2.67;2.27;;;22.40;61.10;23.10;99585.00;;;;6269889;22;20149;-59
2023/07/24 04:08:19;;;;;;;2.70;2.50;;;22.30;60.90;23.10;99586.00;;;;6270351;22;20196;-59
2023/07/24 04:10:45;;;;;;;2.40;2.20;;;22.30;60.90;23.10;99589.00;;;;6270436;22;20720;-59
2023/07/24 04:13:11;;;;;;;2.97;2.40;;;22.40;60.90;23.10;99581.00;;;;6271153;22;20160;-59
2023/07/24 04:15:38;;;;;;;2.50;2.30;;;22.30;60.70;23.10;99570.00;;;;6269780;22;20177;-59
2023/07/24 04:18:03;;;;;;;3.73;2.27;;;22.30;60.70;23.10;99577.00;;;;6270857;22;20687;-59
2023/07/24 04:20:29;;;;;;;2.40;2.20;;;22.30;61.30;23.10;99578.00;;;;6271264;22;20145;-58
2023/07/24 04:22:55;;;;;;;2.50;2.30;;;22.30;61.00;23.10;99573.00;;;;6270957;22;20145;-59
2023/07/24 04:25:20;;;;;;;2.50;2.30;;;22.30;61.00;23.10;99593.00;;;;6269052;22;20148;-58
2023/07/24 04:27:46;;;;;;;2.53;2.33;;;22.30;61.00;23.10;99578.00;;;;6270805;22;20188;-59
2023/07/24 04:30:12;;;;;;;3.60;2.30;;;22.30;61.00;23.10;99578.00;;;;6269612;22;20153;-59
2023/07/24 04:32:38;;;;;;;2.50;2.30;;;22.30;61.00;23.10;99578.00;;;;6271147;22;20149;-59
2023/07/24 04:35:04;;;;;;;2.70;2.50;;;22.30;61.00;23.10;99575.00;;;;6270541;22;20353;-58
2023/07/24 04:37:30;;;;;;;2.57;2.37;;;22.30;61.00;23.10;99580.00;;;;6268034;22;20181;-58
2023/07/24 04:39:55;;;;;;;4.03;2.50;;;22.30;61.00;23.10;99589.00;;;;6271091;22;20149;-58
2023/07/24 04:42:21;;;;;;;2.73;2.53;;;22.30;61.00;23.10;99580.00;;;;6270788;22;20731;-58
2023/07/24 04:44:47;;;;;;;3.50;2.80;;;22.30;61.00;23.10;99586.00;;;;6269132;22;20153;-59
2023/07/24 04:47:13;;;;;;;4.10;2.60;;;22.30;61.40;23.10;99581.00;;;;6270330;22;20232;-58
2023/07/24 04:49:38;;;;;;;3.43;2.73;;;22.30;61.50;23.00;99573.00;;;;6271095;22;20183;-58
2023/07/24 04:52:04;;;;;;;3.07;2.70;;;22.30;61.70;23.10;99577.00;;;;6270961;22;20175;-58
2023/07/24 04:54:30;;;;;;;3.20;2.90;;;22.30;61.70;23.10;99589.00;;;;6270434;22;20637;-58
2023/07/24 04:56:56;;;;;;;5.70;2.97;;;22.30;61.80;23.10;99582.00;;;;6269464;22;20148;-58
2023/07/24 04:59:21;;;;;;;3.93;2.90;;;22.30;61.80;23.10;99593.00;;;;6270679;22;20176;-58
2023/07/24 05:01:47;;;;;;;3.10;2.80;;;22.20;61.70;23.10;99600.00;;;;6269550;22;20156;-58
2023/07/24 05:04:13;;;;;;;3.13;2.83;;;22.30;62.00;23.00;99597.00;;;;6270620;22;20148;-59
2023/07/24 05:06:39;;;;;;;3.17;2.87;;;22.30;62.10;23.00;99600.00;;;;6268578;22;20153;-58
2023/07/24 05:09:04;;;;;;;4.90;2.70;;;22.30;62.20;23.00;99597.00;;;;6270484;22;20172;-59
2023/07/24 05:11:30;;;;;;;3.40;3.10;;;22.30;63.00;23.00;99593.00;;;;6270717;22;20155;-59
2023/07/24 05:13:56;;;;;;;3.10;2.90;;;22.20;62.20;23.00;99601.00;;;;6270565;22;20145;-59
2023/07/24 05:16:22;;;;;;;2.87;2.67;;;22.20;62.20;23.00;99603.00;;;;6271458;22;20176;-59
2023/07/24 05:18:47;;;;;;;3.13;2.90;;;22.30;62.20;23.00;99600.00;;;;6277696;22;20191;-59
2023/07/24 05:21:13;;;;;;;3.60;3.03;;;22.20;62.10;23.00;99602.00;;;;6269936;22;20153;-59
2023/07/24 05:23:39;;;;;;;3.13;2.93;;;22.20;62.10;23.00;99608.00;;;;6269533;22;20621;-59
2023/07/24 05:26:04;;;;;;;3.57;2.97;;;22.20;62.10;23.00;99608.00;;;;6267504;22;20157;-58
2023/07/24 05:28:31;;;;;;;3.23;2.93;;;22.20;62.30;23.00;99611.00;;;;6270584;22;20173;-58
2023/07/24 05:31:03;;;;;;;3.30;3.00;;;22.20;62.10;23.00;99615.00;;;;6272686;22;20160;-58
2023/07/24 05:33:30;;;;;;;3.03;2.83;;;22.20;62.10;23.00;99596.00;;;;6273167;22;20137;-58
2023/07/24 05:35:59;;;;;;;2.83;2.63;;;22.20;62.10;23.00;99613.00;;;;6267323;22;20232;-58
2023/07/24 05:38:25;;;;;;;3.00;2.80;;;22.20;61.90;23.00;99616.00;;;;6270565;22;20161;-58
2023/07/24 05:41:02;;;;;;;2.90;2.70;;;22.20;61.90;23.00;99613.00;;;;6270768;22;20155;-57
2023/07/24 05:43:28;;;;;;;3.20;2.90;;;22.20;62.70;23.00;99617.00;;;;6269625;22;20670;-58
2023/07/24 05:45:55;;;;;;;3.07;2.87;;;22.20;62.60;23.00;99619.00;;;;6268953;22;20720;-58
2023/07/24 05:48:20;;;;;;;2.90;2.70;;;22.20;61.70;23.00;99609.00;;;;6268914;22;20173;-59
2023/07/24 05:50:47;;;;;;;3.13;2.90;;;22.20;61.80;23.00;99610.00;;;;6269817;22;20156;-58
2023/07/24 05:53:13;;;;;;;3.47;2.80;;;22.20;61.80;22.90;99602.00;;;;6270669;22;20156;-58
2023/07/24 05:55:39;;;;;;;3.10;2.80;;;22.20;61.70;23.00;99622.00;;;;6269241;22;20176;-58
2023/07/24 05:58:05;;;;;;;2.87;2.67;;;22.20;61.70;23.00;99628.00;;;;6268824;22;20161;-58
2023/07/24 06:00:30;;;;;;;3.07;2.77;;;22.20;61.70;23.00;99617.00;;;;6270246;22;20141;-58
2023/07/24 06:02:56;;;;;;;2.80;2.60;;;22.20;61.70;23.00;99628.00;;;;6270010;22;20141;-58
2023/07/24 06:05:22;;;;;;;2.93;2.73;;;22.20;61.70;22.90;99637.00;;;;6267828;22;20148;-58
2023/07/24 06:07:47;;;;;;;3.00;2.80;;;22.20;61.70;23.00;99560.00;;;;6269569;22;20192;-58
2023/07/24 06:10:13;;;;;;;2.83;2.63;;;22.20;61.70;22.90;99636.00;;;;6268094;22;20149;-58
2023/07/24 06:12:39;;;;;;;2.97;2.73;;;22.20;61.60;22.90;99634.00;;;;6269150;22;20184;-59
2023/07/24 06:15:06;;;;;;;2.93;2.73;;;22.20;61.70;22.90;99621.00;;;;6268759;22;20369;-58
2023/07/24 06:17:32;;;;;;;2.73;2.53;;;22.20;61.70;22.90;99633.00;;;;6268914;22;20187;-57
2023/07/24 06:19:57;;;;;;;3.33;3.03;;;22.10;61.50;22.90;99638.00;;;;6264644;22;20142;-57
2023/07/24 06:22:23;;;;;;;3.07;2.77;;;22.20;61.70;22.90;99637.00;;;;6268106;22;20165;-58
2023/07/24 06:24:49;;;;;;;2.80;2.60;;;22.10;61.50;22.90;99629.00;;;;6267825;22;20149;-58
2023/07/24 06:27:15;;;;;;;3.00;2.80;;;22.10;61.50;22.90;99569.00;;;;6269346;22;20621;-58
2023/07/24 06:29:41;;;;;;;2.90;2.70;;;22.10;61.50;22.90;99638.00;;;;6270099;22;20145;-58
2023/07/24 06:32:07;;;;;;;2.90;2.70;;;22.10;61.60;22.90;99641.00;;;;6269516;22;20747;-59
2023/07/24 06:34:33;;;;;;;3.07;2.80;;;22.10;61.60;22.90;99649.00;;;;6269091;22;20228;-58
2023/07/24 06:36:59;;;;;;;3.10;2.90;;;22.20;61.70;22.90;99642.00;;;;6271585;22;20514;-59
2023/07/24 06:39:24;;;;;;;3.13;2.83;;;22.10;61.60;22.90;99636.00;;;;6269660;22;20621;-59
2023/07/24 06:41:53;;;;;;;3.07;2.80;;;22.20;61.80;22.90;99642.00;;;;6271219;22;20156;-58
2023/07/24 06:44:19;;;;;;;2.90;2.70;;;22.10;61.80;22.90;99638.00;;;;6245120;22;20759;-59
2023/07/24 06:46:45;;;;;;;3.00;2.80;;;22.20;61.80;22.90;99624.00;;;;6243844;22;20149;-59
2023/07/24 06:49:11;;;;;;;3.57;3.00;;;22.20;61.80;22.90;99627.00;;;;6271651;22;20165;-59
2023/07/24 06:51:38;;;;;;;3.13;2.93;;;22.20;61.80;22.90;99625.00;;;;6272196;22;20168;-59
2023/07/24 06:54:04;;;;;;;2.90;2.70;;;22.10;61.80;22.90;99623.00;;;;6269954;22;20641;-59
2023/07/24 06:56:30;;;;;;;3.30;3.00;;;22.20;61.90;22.90;99641.00;;;;6271057;22;20176;-59
2023/07/24 06:58:56;;;;;;;3.00;2.80;;;22.20;61.90;22.90;99634.00;;;;6271137;22;20171;-59
2023/07/24 07:01:22;;;;;;;3.13;2.90;;;22.20;61.90;23.00;99637.00;;;;6272128;22;20167;-60
2023/07/24 07:03:47;;;;;;;3.07;2.87;;;22.10;61.80;22.90;99628.00;;;;6271086;22;20234;-59
2023/07/24 07:06:13;;;;;;;3.17;2.97;;;22.20;61.90;22.90;99617.00;;;;6270869;22;20238;-60
2023/07/24 07:08:39;;;;;;;3.40;3.10;;;22.20;61.90;23.00;99605.00;;;;6272031;22;20618;-59
2023/07/24 07:11:04;;;;;;;3.30;3.00;;;22.10;61.80;23.00;99619.00;;;;6271831;22;20237;-59
2023/07/24 07:13:30;;;;;;;3.20;3.00;;;22.20;61.90;22.90;99608.00;;;;6269662;22;20157;-62
2023/07/24 07:15:56;;;;;;;2.90;2.70;;;22.20;61.80;23.00;99611.00;;;;6271607;22;20165;-61
2023/07/24 07:18:22;;;;;;;3.00;2.80;;;22.20;61.80;23.00;99611.00;;;;6272426;22;20173;-60
2023/07/24 07:20:48;;;;;;;3.67;3.00;;;22.20;61.80;23.00;99608.00;;;;6278921;22;20145;-60
2023/07/24 07:23:14;;;;;;;3.00;2.80;;;22.20;61.90;23.00;99620.00;;;;6272582;22;20141;-59
2023/07/24 07:25:40;;;;;;;3.30;3.00;;;22.20;62.10;22.90;99619.00;;;;6269579;22;20156;-60
2023/07/24 07:28:06;;;;;;;3.43;3.03;;;22.20;61.80;22.90;99621.00;;;;6272264;22;20169;-61
2023/07/24 07:30:31;;;;;;;2.80;2.60;;;22.20;61.80;23.00;99627.00;;;;6271915;22;20149;-61
2023/07/24 07:32:57;;;;;;;3.30;3.00;;;22.20;61.90;23.00;99616.00;;;;6269577;22;20153;-60
2023/07/24 07:35:23;;;;;;;3.37;3.07;;;22.20;62.10;22.90;99610.00;;;;6275021;22;20181;-64
2023/07/24 07:37:49;;;;;;;3.00;2.80;;;22.20;62.00;22.90;99621.00;;;;6273183;22;20169;-60
2023/07/24 07:40:14;;;;;;;3.10;2.90;;;22.20;62.20;22.90;99626.00;;;;6271900;22;20145;-60
2023/07/24 07:42:41;;;;;;;3.00;2.80;;;22.20;62.20;22.90;99623.00;;;;6271712;22;20202;-60
2023/07/24 07:45:07;;;;;;;4.10;2.80;;;22.20;62.20;23.00;99619.00;;;;6271111;22;20145;-60
2023/07/24 07:47:33;;;;;;;3.47;3.10;;;22.20;62.20;23.00;99611.00;;;;6271559;22;20196;-60
2023/07/24 07:49:58;;;;;;;3.37;3.07;;;22.20;62.20;23.00;99598.00;;;;6271199;22;20485;-60
2023/07/24 07:52:24;;;;;;;3.70;2.97;;;22.10;62.10;23.00;99601.00;;;;6260587;22;20866;-60
2023/07/24 07:54:50;;;;;;;3.20;2.90;;;22.20;62.30;23.00;99595.00;;;;6269432;22;20180;-59
2023/07/24 07:57:15;;;;;;;3.37;3.07;;;22.20;62.40;23.00;99597.00;;;;6270563;22;20141;-60
2023/07/24 07:59:41;;;;;;;3.47;2.80;;;22.20;62.40;23.00;99587.00;;;;6271711;22;20234;-60
2023/07/24 08:02:07;;;;;;;4.00;3.20;;;22.20;62.40;23.00;99586.00;;;;6271536;22;20652;-60
2023/07/24 08:04:33;;;;;;;3.50;3.20;;;22.20;62.50;23.00;99596.00;;;;6270224;22;20206;-60
2023/07/24 08:06:59;;;;;;;3.73;3.07;;;22.20;62.60;23.00;99595.00;;;;6270657;22;20146;-60
2023/07/24 08:09:25;;;;;;;3.43;3.13;;;22.20;62.60;23.00;99575.00;;;;6273635;22;20169;-59
2023/07/24 08:11:51;;;;;;;3.70;3.40;;;22.20;62.60;23.00;99576.00;;;;6271525;22;20149;-59
2023/07/24 08:14:17;;;;;;;3.17;2.90;;;22.20;62.60;23.00;99575.00;;;;6268886;22;20155;-60
2023/07/24 08:16:43;;;;;;;3.20;2.97;;;22.10;62.50;23.00;99584.00;;;;6268060;22;20569;-59
2023/07/24 08:19:09;;;;;;;3.30;3.00;;;22.20;62.60;23.00;99580.00;;;;6270303;22;20197;-60
2023/07/24 08:21:34;;;;;;;3.40;3.10;;;22.20;62.70;23.00;99582.00;;;;6271219;22;20180;-60
2023/07/24 08:24:01;;;;;;;3.27;2.93;;;22.20;62.70;23.00;99592.00;;;;6270054;22;20239;-60
2023/07/24 08:26:27;;;;;;;3.50;3.20;;;22.20;62.80;23.00;99588.00;;;;6267519;22;20645;-59
2023/07/24 08:28:53;;;;;;;3.00;2.80;;;22.20;62.70;23.00;99598.00;;;;6271224;22;20161;-59
2023/07/24 08:31:19;;;;;;;2.90;2.70;;;22.20;62.80;23.10;99590.00;;;;6271475;22;20145;-59
2023/07/24 08:33:44;;;;;;;3.10;2.90;;;22.20;62.70;23.00;99601.00;;;;6271635;22;20223;-59
2023/07/24 08:36:12;;;;;;;3.17;2.90;;;22.20;62.80;23.00;99526.00;;;;6270059;22;20199;-58
2023/07/24 08:38:38;;;;;;;3.10;2.90;;;22.20;62.70;23.00;99583.00;;;;6271839;22;20235;-59
2023/07/24 08:41:11;;;;;;;3.23;3.00;;;22.10;62.70;23.00;99587.00;;;;6269862;22;20157;-60
2023/07/24 08:43:39;;;;;;;3.10;2.90;;;22.20;62.70;23.10;99586.00;;;;6271557;22;20195;-60
2023/07/24 08:46:05;;;;;;;3.23;2.70;;;22.20;62.70;23.00;99585.00;;;;6269184;22;20145;-60
2023/07/24 08:48:35;;;;;;;3.00;2.80;;;22.20;62.70;23.00;99587.00;;;;6271948;22;20258;-60
2023/07/24 08:51:05;;;;;;;3.27;3.07;;;22.20;62.80;23.00;99583.00;;;;6271816;22;20145;-60
2023/07/24 08:53:31;;;;;;;3.40;3.10;;;22.20;62.70;23.10;99575.00;;;;6270468;22;20156;-60
2023/07/24 08:55:57;;;;;;;3.10;2.80;;;22.20;62.70;23.10;99561.00;;;;6217127;22;20579;-59
2023/07/24 08:58:22;;;;;;;3.40;3.10;;;22.20;63.30;23.10;99565.00;;;;6271048;22;20165;-58
2023/07/24 09:00:48;;;;;;;3.00;2.80;;;22.20;63.30;23.10;99561.00;;;;6267572;22;20145;-59
2023/07/24 09:03:14;;;;;;;3.03;2.83;;;22.20;63.60;23.10;99564.00;;;;6269603;22;20155;-58
2023/07/24 09:05:40;;;;;;;3.47;3.13;;;22.20;63.60;23.10;99554.00;;;;6269843;22;20160;-59
2023/07/24 09:08:05;;;;;;;3.53;3.03;;;22.20;63.60;23.10;99555.00;;;;6270182;22;20513;-59
2023/07/24 09:10:31;;;;;;;3.40;3.03;;;22.20;63.70;23.10;99561.00;;;;6243303;22;20149;-58
2023/07/24 09:12:57;;;;;;;6.53;3.20;;;22.20;63.80;23.10;99565.00;;;;6270623;22;20145;-59
2023/07/24 09:15:23;;;;;;;3.47;3.17;;;22.20;63.90;23.10;99576.00;;;;6269070;22;20637;-58
2023/07/24 09:17:52;;;;;;;7.43;3.30;;;22.30;64.20;23.10;99588.00;;;;6270429;22;20181;-57
2023/07/24 09:20:19;;;;;;;5.33;3.37;;;22.30;64.30;23.10;99575.00;;;;6270787;22;20148;-58
2023/07/24 09:22:52;;;;;;;4.10;3.03;;;22.20;64.00;23.10;99570.00;;;;6273975;22;20141;-58
2023/07/24 09:25:17;;;;;;;4.20;3.20;;;22.30;63.90;23.10;99579.00;;;;6278773;22;20141;-58
2023/07/24 09:27:43;;;;;;;6.53;3.07;;;22.30;63.90;23.10;99580.00;;;;6270393;22;20199;-58
2023/07/24 09:30:14;;;;;;;3.40;3.10;;;22.30;63.70;23.10;99581.00;;;;6269019;22;20149;-57
2023/07/24 09:32:40;;;;;;;3.67;3.30;;;22.30;63.70;23.10;99592.00;;;;6244341;22;20585;-57
2023/07/24 09:35:17;;;;;;;4.87;3.30;;;22.30;63.70;23.10;99585.00;;;;6270574;22;20179;-58
2023/07/24 09:37:44;;;;;;;4.47;3.10;;;22.30;63.70;23.10;99574.00;;;;6273033;22;20161;-58
2023/07/24 09:40:10;;;;;;;3.90;3.50;;;22.30;63.80;23.10;99564.00;;;;6279216;22;20145;-59
2023/07/24 09:42:37;;;;;;;4.57;2.90;;;22.20;63.60;23.10;99551.00;;;;6273523;22;20198;-58
2023/07/24 09:45:04;;;;;;;4.27;3.17;;;22.30;63.70;23.20;99553.00;;;;6270851;22;20529;-58
2023/07/24 09:47:30;;;;;;;5.17;2.93;;;22.30;63.70;23.20;99543.00;;;;6269563;22;20179;-58
2023/07/24 09:49:56;;;;;;;4.53;3.10;;;22.30;63.70;23.20;99530.00;;;;6268422;22;20152;-58
2023/07/24 09:52:21;;;;;;;6.40;3.30;;;22.30;63.70;23.20;99535.00;;;;6243713;22;20145;-58
2023/07/24 09:55:12;;;;;;;4.70;3.23;;;22.30;63.90;23.20;99521.00;;;;6218132;22;20197;-58
2023/07/24 09:57:37;;;;;;;6.70;3.50;;;22.30;64.00;23.20;99523.00;;;;6267985;22;20195;-58
2023/07/24 10:00:04;;;;;;;6.80;3.30;;;22.30;64.20;23.20;99518.00;;;;6268443;22;20145;-58
2023/07/24 10:02:30;;;;;;;7.63;3.77;;;22.40;64.50;23.30;99516.00;;;;6269869;22;20766;-58
2023/07/24 10:04:56;;;;;;;8.03;3.27;;;22.40;64.40;23.30;99515.00;;;;6243026;22;20149;-58
2023/07/24 10:07:23;;;;;;;9.07;3.83;;;22.40;64.40;23.30;99506.00;;;;6270005;22;20188;-58
2023/07/24 10:09:52;;;;;;;7.13;3.83;;;22.40;64.40;23.30;99462.00;;;;6271525;22;20153;-58
2023/07/24 10:12:21;;;;;;;5.00;3.40;;;22.40;64.40;23.30;99499.00;;;;6271191;22;20199;-58
2023/07/24 10:14:47;;;;;;;6.67;3.30;;;22.40;64.40;23.30;99505.00;;;;6250192;22;20173;-59
2023/07/24 10:17:12;;;;;;;5.77;3.40;;;22.40;64.60;23.30;99509.00;;;;6270881;22;20244;-57
2023/07/24 10:19:45;;;;;;;8.20;3.50;;;22.40;64.50;23.30;99504.00;;;;6270374;22;20248;-57
2023/07/24 10:22:20;;;;;;;5.43;3.37;;;22.40;64.30;23.30;99500.00;;;;6270821;22;20183;-57
2023/07/24 10:24:46;;;;;;;8.67;3.30;;;22.40;64.30;23.30;99494.00;;;;6243195;22;20149;-57
2023/07/24 10:27:12;;;;;;;5.50;3.30;;;22.30;64.30;23.30;99500.00;;;;6218267;22;20156;-57
2023/07/24 10:29:38;;;;;;;5.50;3.27;;;22.40;64.30;23.30;99497.00;;;;6271208;22;20149;-57
2023/07/24 10:32:18;;;;;;;4.67;3.23;;;22.40;64.20;23.30;99489.00;;;;6272703;22;20172;-58
2023/07/24 10:34:44;;;;;;;4.90;3.20;;;22.40;64.30;23.30;99485.00;;;;6271151;22;20499;-57
2023/07/24 10:37:09;;;;;;;4.27;3.20;;;22.40;64.30;23.30;99479.00;;;;6270718;22;20141;-58
2023/07/24 10:39:40;;;;;;;4.47;3.20;;;22.40;64.70;23.40;99479.00;;;;6271296;22;20149;-58
2023/07/24 10:42:10;;;;;;;7.13;3.83;;;22.40;64.90;23.40;99477.00;;;;6272056;22;20667;-58
2023/07/24 10:44:36;;;;;;;6.67;3.07;;;22.40;64.90;23.40;99477.00;;;;6271410;22;20217;-56
2023/07/24 10:47:02;;;;;;;5.43;3.30;;;22.40;65.00;23.40;99476.00;;;;6269029;22;20141;-56
2023/07/24 10:49:28;;;;;;;5.60;3.33;;;22.40;65.10;23.40;99474.00;;;;6270573;22;20153;-56
2023/07/24 10:51:57;;;;;;;5.43;3.10;;;22.50;65.10;23.40;99412.00;;;;6272216;22;20472;-58